• Join FlightAware (Why Join?)
  • Login
  • US Flag 
06:06PM EDT


 

Airport Tracker/Info


-or-


 

Live Flight TrackerFlight Track Log ✈ TRS219 ✈ 24-Jul-2013 ✈ KBOS - KBWI

Flight Track Log - Related Links

Times and Time Zones

All times are in EDT time to prevent confusion due to time zone crossing. See the TRS219 flight status page for this flight to view local times or setup timezone preferences in your user account.

Time Position Orientation Groundspeed Altitude Reporting Facility
EDT Latitude Longitude Course Direction KTS MPH feet Rate Location/Type
04:42PM 42.3500 -71.0167 118° Southeast 166 191 700  Level KA90
04:44PM 42.3167 -70.9333 118° Southeast 231 266 2,500 1,500 Climbing KA90
04:45PM 42.3333 -70.8500 75° East 270 311 4,200 1,980 Climbing KA90
04:46PM 42.3167 -70.7333 101° East 293 337 6,500 1,980 Climbing KA90
04:47PM 42.2189 -70.7356 181° South 273 314 9,300 1,860 Climbing Boston Center
04:48PM 42.1764 -70.8236 237° Southwest 227 261 11,000 1,440 Climbing Boston Center
04:49PM 42.1569 -70.9361 257° West 280 322 12,200 1,200 Climbing Boston Center
04:50PM 42.1422 -71.0822 262° West 342 394 13,500 1,500 Climbing Boston Center
04:51PM 42.1269 -71.2028 260° West 371 427 15,200 1,620 Climbing Boston Center
04:52PM 42.1075 -71.3544 260° West 371 427 16,800 1,380 Climbing Boston Center
04:53PM 42.0942 -71.4806 262° West 377 434 18,000 1,500 Climbing Boston Center
04:54PM 42.0744 -71.6403 261° West 389 448 19,900 1,800 Climbing Boston Center
04:55PM 42.0567 -71.7914 261° West 399 459 21,600 1,380 Climbing Boston Center
04:56PM 42.0367 -71.9397 260° West 404 465 22,700 1,200 Climbing Boston Center
04:57PM 42.0183 -72.0936 261° West 414 476 24,100 1,260 Climbing Boston Center
04:58PM 41.9981 -72.2472 260° West 414 476 25,300 1,320 Climbing Boston Center
04:59PM 41.9772 -72.4011 260° West 419 482 26,800 1,200 Climbing Boston Center
05:00PM 41.9586 -72.5572 261° West 425 489 27,800 840 Climbing Boston Center
05:01PM 41.9333 -72.6856 255° West 420 483 28,500 900 Climbing Boston Center
05:02PM 41.8581 -72.8025 229° Southwest 399 459 29,600 660 Climbing Boston Center
05:03PM 41.7511 -72.9494 226° Southwest 420 483 30,000 180 Climbing Boston Center
05:04PM 41.6714 -73.0569 225° Southwest 420 483 30,000  Level Boston Center
05:05PM 41.5917 -73.1644 225° Southwest 415 478 30,000  Level Boston Center
05:06PM 41.5178 -73.2664 226° Southwest 405 466 30,000  Level Boston Center
05:08PM 41.3575 -73.4856 226° Southwest 396 456 30,000  Level New York Center
05:09PM 41.2736 -73.5953 225° Southwest 407 468 30,000  Level New York Center
05:10PM 41.2061 -73.7108 232° Southwest 407 468 30,000  Level New York Center
05:11PM 41.1367 -73.8292 232° Southwest 412 474 30,000  Level New York Center
05:12PM 41.0689 -73.9444 232° Southwest 412 474 30,000  Level New York Center
05:13PM 40.9969 -74.0647 232° Southwest 412 474 30,000 -60 Level New York Center
05:14PM 40.9142 -74.1925 229° Southwest 412 474 29,900 -960 Descending New York Center
05:15PM 40.8483 -74.3044 232° Southwest 412 474 28,100 -1,980 Descending New York Center
05:16PM 40.7803 -74.4158 231° Southwest 407 468 26,000 -1,140 Descending New York Center
05:17PM 40.7122 -74.5272 231° Southwest 402 463 25,900 -480 Descending New York Center
05:18PM 40.6644 -74.6533 243° Southwest 392 451 25,100 -1,200 Descending New York Center
05:19PM 40.6144 -74.7789 242° Southwest 392 451 23,500 -1,500 Descending New York Center
05:20PM 40.5664 -74.9044 243° Southwest 392 451 22,100 -1,500 Descending New York Center
05:21PM 40.4958 -75.0094 229° Southwest 387 445 20,600 -1,620 Descending New York Center
05:22PM 40.4197 -75.1000 222° Southwest 380 437 19,000 -840 Descending New York Center
05:23PM 40.3414 -75.1878 221° Southwest 375 432 19,000  Level New York Center
05:24PM 40.2717 -75.2678 221° Southwest 375 432 19,000  Level New York Center
05:25PM 40.1844 -75.3681 221° Southwest 375 432 19,000  Level New York Center
05:26PM 40.1125 -75.4500 221° Southwest 356 410 19,000  Level New York Center
05:27PM 40.0403 -75.5319 221° Southwest 351 404 19,000 -300 Level New York Center
05:28PM 39.9747 -75.6061 221° Southwest 325 374 18,400 -840 Descending New York Center
05:29PM 39.9178 -75.6753 223° Southwest 318 366 17,400 -1,080 Descending New York Center
05:30PM 39.8658 -75.7717 235° Southwest 305 351 16,300 -1,020 Descending New York Center
05:31PM 39.8225 -75.8550 236° Southwest 305 351 15,400 -1,020 Descending New York Center
05:33PM 39.7333 -76.0167 234° Southwest 305 351 13,700 -1,200 Descending Potomac TRACON
05:34PM 39.7000 -76.1000 243° Southwest 298 343 12,400 -960 Descending Potomac TRACON
05:35PM 39.6500 -76.1833 232° Southwest 294 338 11,800 -1,200 Descending Potomac TRACON
05:36PM 39.6000 -76.2667 232° Southwest 290 334 10,100 -1,620 Descending Potomac TRACON
05:37PM 39.5500 -76.3333 226° Southwest 271 312 8,600 -1,740 Descending Potomac TRACON
05:38PM 39.4833 -76.3833 210° Southwest 258 297 6,700 -2,040 Descending Potomac TRACON
05:39PM 39.4167 -76.4333 210° Southwest 270 311 4,500 -1,380 Descending Potomac TRACON
05:40PM 39.3500 -76.4167 169° South 283 326 4,000 -300 Descending Potomac TRACON
05:41PM 39.2833 -76.3833 159° South 268 308 4,000  Level Potomac TRACON
05:42PM 39.2333 -76.3500 153° Southeast 196 226 4,000  Level Potomac TRACON
05:43PM 39.1833 -76.3167 153° Southeast 193 222 4,000  Level Potomac TRACON
05:44PM 39.1333 -76.2833 153° Southeast 195 224 4,000  Level Potomac TRACON
05:45PM 39.1000 -76.2333 131° Southeast 198 228 4,000  Level Potomac TRACON
05:46PM 39.0500 -76.2333 180° South 193 222 4,000  Level Potomac TRACON
05:47PM 39.0000 -76.2500 195° South 191 220 4,000  Level Potomac TRACON
05:48PM 38.9667 -76.3000 229° Southwest 185 213 4,000  Level Potomac TRACON
05:49PM 38.9333 -76.3333 218° Southwest 189 217 4,000  Level Potomac TRACON
05:50PM 38.9333 -76.4000 270° West 171 197 4,000  Level Potomac TRACON
05:51PM 38.9500 -76.4667 288° West 173 199 4,000 -240 Level Potomac TRACON
05:52PM 38.9833 -76.5000 322° Northwest 171 197 3,600 -960 Descending Potomac TRACON
05:53PM 39.0167 -76.5333 322° Northwest 173 199 2,200 -840 Descending Potomac TRACON
05:54PM 39.0667 -76.5667 333° Northwest 173 199 2,000 -300 Descending Potomac TRACON
05:55PM 39.1000 -76.6000 322° Northwest 171 197 1,700 -300 Descending Potomac TRACON